sensor_id;sensor_type;location;lat;lon;timestamp;pressure;altitude;pressure_sealevel;temperature;humidity
56944;BME280;42848;42.524;12.052;2023-04-09T00:01:41;96655.25;;;7.59;100.00
56944;BME280;42848;42.524;12.052;2023-04-09T00:04:06;96653.22;;;7.79;100.00
56944;BME280;42848;42.524;12.052;2023-04-09T00:06:32;96659.56;;;7.60;100.00
56944;BME280;42848;42.524;12.052;2023-04-09T00:08:57;96662.72;;;7.76;100.00
56944;BME280;42848;42.524;12.052;2023-04-09T00:11:23;96663.84;;;7.48;100.00
56944;BME280;42848;42.524;12.052;2023-04-09T00:13:49;96659.56;;;7.60;100.00
56944;BME280;42848;42.524;12.052;2023-04-09T00:16:14;96665.16;;;7.50;100.00
56944;BME280;42848;42.524;12.052;2023-04-09T00:18:40;96659.84;;;7.31;100.00
56944;BME280;42848;42.524;12.052;2023-04-09T00:21:06;96662.06;;;7.43;100.00
56944;BME280;42848;42.524;12.052;2023-04-09T00:23:33;96658.03;;;7.54;100.00
56944;BME280;42848;42.524;12.052;2023-04-09T00:25:59;96665.22;;;7.04;100.00
56944;BME280;42848;42.524;12.052;2023-04-09T00:28:25;96657.13;;;7.04;100.00
56944;BME280;42848;42.524;12.052;2023-04-09T00:30:51;96663.25;;;7.09;100.00
56944;BME280;42848;42.524;12.052;2023-04-09T00:33:17;96665.03;;;7.00;100.00
56944;BME280;42848;42.524;12.052;2023-04-09T00:35:42;96664.16;;;7.05;100.00
56944;BME280;42848;42.524;12.052;2023-04-09T00:38:08;96665.03;;;7.00;100.00
56944;BME280;42848;42.524;12.052;2023-04-09T00:40:34;96667.72;;;7.00;100.00
56944;BME280;42848;42.524;12.052;2023-04-09T00:42:59;96671.16;;;7.06;100.00
56944;BME280;42848;42.524;12.052;2023-04-09T00:45:25;96662.94;;;7.11;100.00
56944;BME280;42848;42.524;12.052;2023-04-09T00:47:51;96659.97;;;7.26;100.00
56944;BME280;42848;42.524;12.052;2023-04-09T00:50:16;96670.44;;;7.28;100.00
56944;BME280;42848;42.524;12.052;2023-04-09T00:52:42;96659.94;;;7.12;100.00
56944;BME280;42848;42.524;12.052;2023-04-09T00:55:08;96659.25;;;7.07;100.00
56944;BME280;42848;42.524;12.052;2023-04-09T00:57:34;96658.25;;;7.17;100.00
56944;BME280;42848;42.524;12.052;2023-04-09T01:00:00;96662.03;;;7.02;100.00
56944;BME280;42848;42.524;12.052;2023-04-09T01:02:26;96658.66;;;6.96;100.00
56944;BME280;42848;42.524;12.052;2023-04-09T01:04:52;96665.03;;;7.00;100.00
56944;BME280;42848;42.524;12.052;2023-04-09T01:09:53;96671.59;;;6.94;100.00
56944;BME280;42848;42.524;12.052;2023-04-09T01:15:10;96670.00;;;6.93;100.00
56944;BME280;42848;42.524;12.052;2023-04-09T01:18:05;96661.44;;;7.05;100.00
56944;BME280;42848;42.524;12.052;2023-04-09T01:20:58;96674.22;;;6.99;100.00
56944;BME280;42848;42.524;12.052;2023-04-09T01:29:49;96670.00;;;6.93;100.00
56944;BME280;42848;42.524;12.052;2023-04-09T01:32:17;96668.41;;;6.92;100.00
56944;BME280;42848;42.524;12.052;2023-04-09T01:34:47;96671.59;;;6.94;100.00
56944;BME280;42848;42.524;12.052;2023-04-09T01:37:14;96656.75;;;6.97;100.00
56944;BME280;42848;42.524;12.052;2023-04-09T01:39:41;96661.03;;;6.98;100.00
56944;BME280;42848;42.524;12.052;2023-04-09T01:42:09;96654.84;;;6.97;100.00
56944;BME280;42848;42.524;12.052;2023-04-09T01:44:38;96653.63;;;7.03;100.00
56944;BME280;42848;42.524;12.052;2023-04-09T01:47:06;96652.03;;;7.02;100.00
56944;BME280;42848;42.524;12.052;2023-04-09T01:49:34;96657.84;;;7.09;100.00
56944;BME280;42848;42.524;12.052;2023-04-09T01:52:03;96649.44;;;7.11;100.00
56944;BME280;42848;42.524;12.052;2023-04-09T01:54:28;96650.84;;;7.08;100.00
56944;BME280;42848;42.524;12.052;2023-04-09T01:56:56;96636.25;;;7.09;100.00
56944;BME280;42848;42.524;12.052;2023-04-09T01:59:22;96640.66;;;7.05;100.00
56944;BME280;42848;42.524;12.052;2023-04-09T02:01:57;96650.25;;;6.98;100.00
56944;BME280;42848;42.524;12.052;2023-04-09T02:04:37;96645.53;;;7.03;100.00
56944;BME280;42848;42.524;12.052;2023-04-09T02:09:44;96648.84;;;7.00;100.00
56944;BME280;42848;42.524;12.052;2023-04-09T02:12:17;96653.84;;;7.07;100.00
56944;BME280;42848;42.524;12.052;2023-04-09T02:14:45;96662.03;;;7.02;100.00
56944;BME280;42848;42.524;12.052;2023-04-09T02:17:11;96654.53;;;6.99;100.00
56944;BME280;42848;42.524;12.052;2023-04-09T02:19:41;96661.34;;;6.96;100.00
56944;BME280;42848;42.524;12.052;2023-04-09T02:22:08;96653.25;;;6.96;100.00
56944;BME280;42848;42.524;12.052;2023-04-09T02:24:33;96648.84;;;7.00;100.00
56944;BME280;42848;42.524;12.052;2023-04-09T02:27:00;96658.03;;;6.99;100.00
56944;BME280;42848;42.524;12.052;2023-04-09T02:29:26;96657.25;;;6.99;100.00
56944;BME280;42848;42.524;12.052;2023-04-09T02:31:52;96658.66;;;6.96;100.00
56944;BME280;42848;42.524;12.052;2023-04-09T02:34:18;96649.44;;;6.97;100.00
56944;BME280;42848;42.524;12.052;2023-04-09T02:36:44;96663.13;;;7.01;100.00
56944;BME280;42848;42.524;12.052;2023-04-09T02:39:10;96660.13;;;7.02;100.00
56944;BME280;42848;42.524;12.052;2023-04-09T02:41:35;96668.22;;;7.02;100.00
56944;BME280;42848;42.524;12.052;2023-04-09T02:44:01;96668.63;;;6.96;100.00
56944;BME280;42848;42.524;12.052;2023-04-09T02:46:27;96662.44;;;6.95;100.00
56944;BME280;42848;42.524;12.052;2023-04-09T02:48:53;96659.03;;;6.90;100.00
56944;BME280;42848;42.524;12.052;2023-04-09T02:51:19;96665.41;;;6.94;100.00
56944;BME280;42848;42.524;12.052;2023-04-09T02:53:45;96672.63;;;6.98;100.00
56944;BME280;42848;42.524;12.052;2023-04-09T02:56:10;96665.63;;;6.97;100.00
56944;BME280;42848;42.524;12.052;2023-04-09T02:58:36;96662.72;;;6.94;100.00
56944;BME280;42848;42.524;12.052;2023-04-09T03:01:02;96664.13;;;6.91;100.00
56944;BME280;42848;42.524;12.052;2023-04-09T03:03:27;96657.63;;;6.92;100.00
56944;BME280;42848;42.524;12.052;2023-04-09T03:05:53;96652.22;;;6.92;100.00
56944;BME280;42848;42.524;12.052;2023-04-09T03:08:19;96660.44;;;7.01;100.00
56944;BME280;42848;42.524;12.052;2023-04-09T03:10:45;96655.34;;;6.99;100.00
56944;BME280;42848;42.524;12.052;2023-04-09T03:13:10;96656.84;;;7.05;100.00
56944;BME280;42848;42.524;12.052;2023-04-09T03:15:36;96661.44;;;7.05;100.00
56944;BME280;42848;42.524;12.052;2023-04-09T03:18:01;96659.25;;;7.07;100.00
56944;BME280;42848;42.524;12.052;2023-04-09T03:20:27;96664.84;;;7.10;100.00
56944;BME280;42848;42.524;12.052;2023-04-09T03:22:53;96660.66;;;7.18;100.00
56944;BME280;42848;42.524;12.052;2023-04-09T03:25:18;96670.25;;;7.10;100.00
56944;BME280;42848;42.524;12.052;2023-04-09T03:27:45;96653.47;;;7.13;100.00
56944;BME280;42848;42.524;12.052;2023-04-09T03:30:11;96662.84;;;7.16;100.00
56944;BME280;42848;42.524;12.052;2023-04-09T03:32:37;96652.94;;;7.11;100.00
56944;BME280;42848;42.524;12.052;2023-04-09T03:35:02;96653.75;;;7.12;100.00
56944;BME280;42848;42.524;12.052;2023-04-09T03:37:28;96652.84;;;7.17;100.00
56944;BME280;42848;42.524;12.052;2023-04-09T03:39:54;96658.25;;;7.17;100.00
56944;BME280;42848;42.524;12.052;2023-04-09T03:42:19;96661.44;;;7.19;100.00
56944;BME280;42848;42.524;12.052;2023-04-09T03:44:45;96667.66;;;7.19;100.00
56944;BME280;42848;42.524;12.052;2023-04-09T03:47:11;96674.47;;;7.17;100.00
56944;BME280;42848;42.524;12.052;2023-04-09T03:49:36;96656.16;;;7.13;100.00
56944;BME280;42848;42.524;12.052;2023-04-09T03:52:02;96668.25;;;7.16;100.00
56944;BME280;42848;42.524;12.052;2023-04-09T03:54:29;96662.06;;;7.16;100.00
56944;BME280;42848;42.524;12.052;2023-04-09T03:56:54;96667.22;;;7.12;100.00
56944;BME280;42848;42.524;12.052;2023-04-09T03:59:21;96669.66;;;7.13;100.00
56944;BME280;42848;42.524;12.052;2023-04-09T04:01:47;96665.84;;;7.15;100.00
56944;BME280;42848;42.524;12.052;2023-04-09T04:04:13;96669.25;;;7.06;100.00
56944;BME280;42848;42.524;12.052;2023-04-09T04:06:38;96670.34;;;7.05;100.00
56944;BME280;42848;42.524;12.052;2023-04-09T04:09:04;96665.22;;;7.04;100.00
56944;BME280;42848;42.524;12.052;2023-04-09T04:11:30;96678.84;;;6.99;100.00
56944;BME280;42848;42.524;12.052;2023-04-09T04:13:55;96674.31;;;6.94;100.00
56944;BME280;42848;42.524;12.052;2023-04-09T04:16:21;96676.81;;;6.91;100.00
56944;BME280;42848;42.524;12.052;2023-04-09T04:18:47;96678.78;;;6.85;100.00
56944;BME280;42848;42.524;12.052;2023-04-09T04:21:13;96678.78;;;6.85;100.00
56944;BME280;42848;42.524;12.052;2023-04-09T04:23:39;96676.69;;;6.82;100.00
56944;BME280;42848;42.524;12.052;2023-04-09T04:26:09;96684.59;;;6.78;100.00
56944;BME280;42848;42.524;12.052;2023-04-09T04:28:36;96692.16;;;6.76;100.00
56944;BME280;42848;42.524;12.052;2023-04-09T04:31:02;96678.16;;;6.74;100.00
56944;BME280;42848;42.524;12.052;2023-04-09T04:33:27;96691.34;;;6.76;100.00
56944;BME280;42848;42.524;12.052;2023-04-09T04:35:53;96687.97;;;6.70;100.00
56944;BME280;42848;42.524;12.052;2023-04-09T04:38:27;96680.38;;;6.72;100.00
56944;BME280;42848;42.524;12.052;2023-04-09T04:40:53;96685.97;;;6.76;100.00
56944;BME280;42848;42.524;12.052;2023-04-09T04:43:19;96685.25;;;6.70;100.00
56944;BME280;42848;42.524;12.052;2023-04-09T04:45:44;96689.88;;;6.70;100.00
56944;BME280;42848;42.524;12.052;2023-04-09T04:48:10;96691.53;;;6.66;100.00
56944;BME280;42848;42.524;12.052;2023-04-09T04:50:36;96698.53;;;6.67;100.00
56944;BME280;42848;42.524;12.052;2023-04-09T04:53:01;96702.56;;;6.69;100.00
56944;BME280;42848;42.524;12.052;2023-04-09T04:55:27;96698.44;;;6.72;100.00
56944;BME280;42848;42.524;12.052;2023-04-09T04:57:53;96715.94;;;6.74;100.00
56944;BME280;42848;42.524;12.052;2023-04-09T05:00:18;96708.16;;;6.73;100.00
56944;BME280;42848;42.524;12.052;2023-04-09T05:02:44;96699.56;;;6.71;100.00
56944;BME280;42848;42.524;12.052;2023-04-09T05:05:10;96702.69;;;6.78;100.00
56944;BME280;42848;42.524;12.052;2023-04-09T05:07:35;96704.94;;;6.71;100.00
56944;BME280;42848;42.524;12.052;2023-04-09T05:10:01;96702.69;;;6.78;100.00
56944;BME280;42848;42.524;12.052;2023-04-09T05:12:30;96704.28;;;6.79;100.00
56944;BME280;42848;42.524;12.052;2023-04-09T05:14:56;96718.25;;;6.81;100.00
56944;BME280;42848;42.524;12.052;2023-04-09T05:17:22;96710.16;;;6.81;100.00
56944;BME280;42848;42.524;12.052;2023-04-09T05:19:52;96712.78;;;6.86;100.00
56944;BME280;42848;42.524;12.052;2023-04-09T05:22:18;96716.56;;;6.85;100.00
56944;BME280;42848;42.524;12.052;2023-04-09T05:24:44;96716.78;;;6.89;100.00
56944;BME280;42848;42.524;12.052;2023-04-09T05:27:10;96729.91;;;6.95;100.00
56944;BME280;42848;42.524;12.052;2023-04-09T05:29:35;96725.50;;;6.99;100.00
56944;BME280;42848;42.524;12.052;2023-04-09T05:32:01;96733.59;;;6.99;100.00
56944;BME280;42848;42.524;12.052;2023-04-09T05:34:28;96733.22;;;7.06;100.00
56944;BME280;42848;42.524;12.052;2023-04-09T05:36:53;96729.63;;;7.10;100.00
56944;BME280;42848;42.524;12.052;2023-04-09T05:39:19;96728.22;;;7.13;100.00
56944;BME280;42848;42.524;12.052;2023-04-09T05:41:45;96742.25;;;7.15;100.00
56944;BME280;42848;42.524;12.052;2023-04-09T05:44:11;96727.66;;;7.16;100.00
56944;BME280;42848;42.524;12.052;2023-04-09T05:46:37;96736.84;;;7.15;100.00
56944;BME280;42848;42.524;12.052;2023-04-09T05:49:03;96740.25;;;7.21;100.00
56944;BME280;42848;42.524;12.052;2023-04-09T05:51:29;96738.06;;;7.23;100.00
56944;BME280;42848;42.524;12.052;2023-04-09T05:53:54;96736.06;;;7.28;100.00
56944;BME280;42848;42.524;12.052;2023-04-09T05:56:20;96741.16;;;7.30;100.00
56944;BME280;42848;42.524;12.052;2023-04-09T05:58:49;96741.88;;;7.35;100.00
56944;BME280;42848;42.524;12.052;2023-04-09T06:01:15;96753.88;;;7.43;100.00
56944;BME280;42848;42.524;12.052;2023-04-09T06:03:42;96754.56;;;7.49;100.00
56944;BME280;42848;42.524;12.052;2023-04-09T06:06:07;96766.59;;;7.56;100.00
56944;BME280;42848;42.524;12.052;2023-04-09T06:08:33;96762.09;;;7.65;100.00
56944;BME280;42848;42.524;12.052;2023-04-09T06:10:59;96757.72;;;7.69;100.00
56944;BME280;42848;42.524;12.052;2023-04-09T06:13:24;96771.09;;;7.75;100.00
56944;BME280;42848;42.524;12.052;2023-04-09T06:15:50;96769.00;;;7.72;100.00
56944;BME280;42848;42.524;12.052;2023-04-09T06:18:16;96757.59;;;7.75;100.00
56944;BME280;42848;42.524;12.052;2023-04-09T06:20:42;96772.81;;;7.84;100.00
56944;BME280;42848;42.524;12.052;2023-04-09T06:23:08;96765.72;;;7.88;100.00
56944;BME280;42848;42.524;12.052;2023-04-09T06:25:34;96774.91;;;7.87;100.00
56944;BME280;42848;42.524;12.052;2023-04-09T06:28:01;96794.13;;;7.86;100.00
56944;BME280;42848;42.524;12.052;2023-04-09T06:30:27;96777.91;;;7.86;100.00
56944;BME280;42848;42.524;12.052;2023-04-09T06:32:53;96788.94;;;7.89;100.00
56944;BME280;42848;42.524;12.052;2023-04-09T06:35:19;96784.31;;;7.90;100.00
56944;BME280;42848;42.524;12.052;2023-04-09T06:37:45;96783.13;;;7.96;100.00
56944;BME280;42848;42.524;12.052;2023-04-09T06:40:11;96786.50;;;8.02;100.00
56944;BME280;42848;42.524;12.052;2023-04-09T06:42:36;96786.19;;;8.03;100.00
56944;BME280;42848;42.524;12.052;2023-04-09T06:45:03;96789.00;;;8.12;100.00
56944;BME280;42848;42.524;12.052;2023-04-09T06:47:33;96800.63;;;8.12;100.00
56944;BME280;42848;42.524;12.052;2023-04-09T06:49:59;96797.03;;;8.17;100.00
56944;BME280;42848;42.524;12.052;2023-04-09T06:52:25;96797.50;;;8.19;100.00
56944;BME280;42848;42.524;12.052;2023-04-09T06:54:51;96798.09;;;8.30;100.00
56944;BME280;42848;42.524;12.052;2023-04-09T06:57:16;96803.19;;;8.31;100.00
56944;BME280;42848;42.524;12.052;2023-04-09T06:59:42;96803.44;;;8.35;100.00
56944;BME280;42848;42.524;12.052;2023-04-09T07:02:08;96807.75;;;8.36;100.00
56944;BME280;42848;42.524;12.052;2023-04-09T07:04:33;96812.13;;;8.45;100.00
56944;BME280;42848;42.524;12.052;2023-04-09T07:07:00;96820.34;;;8.40;100.00
56944;BME280;42848;42.524;12.052;2023-04-09T07:09:25;96812.03;;;8.37;100.00
56944;BME280;42848;42.524;12.052;2023-04-09T07:11:51;96821.53;;;8.48;100.00
56944;BME280;42848;42.524;12.052;2023-04-09T07:14:16;96823.75;;;8.46;100.00
56944;BME280;42848;42.524;12.052;2023-04-09T07:16:42;96826.16;;;8.47;100.00
56944;BME280;42848;42.524;12.052;2023-04-09T07:19:11;96827.53;;;8.59;100.00
56944;BME280;42848;42.524;12.052;2023-04-09T07:21:36;96830.22;;;8.72;100.00
56944;BME280;42848;42.524;12.052;2023-04-09T07:24:02;96834.13;;;8.66;100.00
56944;BME280;42848;42.524;12.052;2023-04-09T07:26:29;96832.28;;;8.75;100.00
56944;BME280;42848;42.524;12.052;2023-04-09T07:28:54;96840.03;;;8.68;100.00
56944;BME280;42848;42.524;12.052;2023-04-09T07:31:20;96837.72;;;8.75;100.00
56944;BME280;42848;42.524;12.052;2023-04-09T07:33:46;96832.91;;;8.72;100.00
56944;BME280;42848;42.524;12.052;2023-04-09T07:36:11;96844.63;;;8.81;100.00
56944;BME280;42848;42.524;12.052;2023-04-09T07:38:37;96834.03;;;8.94;100.00
56944;BME280;42848;42.524;12.052;2023-04-09T07:41:03;96841.25;;;8.98;100.00
56944;BME280;42848;42.524;12.052;2023-04-09T07:43:29;96834.72;;;8.99;100.00
56944;BME280;42848;42.524;12.052;2023-04-09T07:45:55;96843.03;;;9.03;100.00
56944;BME280;42848;42.524;12.052;2023-04-09T07:48:20;96840.59;;;9.15;100.00
56944;BME280;42848;42.524;12.052;2023-04-09T07:50:46;96850.81;;;9.18;100.00
56944;BME280;42848;42.524;12.052;2023-04-09T07:53:12;96850.81;;;9.18;100.00
56944;BME280;42848;42.524;12.052;2023-04-09T07:55:39;96851.25;;;9.34;100.00
56944;BME280;42848;42.524;12.052;2023-04-09T07:58:05;96849.34;;;9.34;100.00
56944;BME280;42848;42.524;12.052;2023-04-09T08:00:30;96858.38;;;9.30;100.00
56944;BME280;42848;42.524;12.052;2023-04-09T08:02:56;96859.78;;;9.27;100.00
56944;BME280;42848;42.524;12.052;2023-04-09T08:05:22;96848.72;;;9.37;100.00
56944;BME280;42848;42.524;12.052;2023-04-09T08:07:49;96849.88;;;9.45;100.00
56944;BME280;42848;42.524;12.052;2023-04-09T08:10:15;96853.97;;;9.65;100.00
56944;BME280;42848;42.524;12.052;2023-04-09T08:12:41;96860.03;;;9.62;100.00
56944;BME280;42848;42.524;12.052;2023-04-09T08:15:07;96866.06;;;9.59;100.00
56944;BME280;42848;42.524;12.052;2023-04-09T08:17:33;96861.63;;;9.63;100.00
56944;BME280;42848;42.524;12.052;2023-04-09T08:20:01;96857.91;;;9.59;100.00
56944;BME280;42848;42.524;12.052;2023-04-09T08:22:27;96862.75;;;9.62;100.00
56944;BME280;42848;42.524;12.052;2023-04-09T08:24:53;96867.41;;;9.70;100.00
56944;BME280;42848;42.524;12.052;2023-04-09T08:27:19;96854.16;;;9.68;100.00
56944;BME280;42848;42.524;12.052;2023-04-09T08:29:46;96871.31;;;9.86;100.00
56944;BME280;42848;42.524;12.052;2023-04-09T08:32:11;96855.00;;;9.78;100.00
56944;BME280;42848;42.524;12.052;2023-04-09T08:34:37;96858.09;;;9.93;100.00
56944;BME280;42848;42.524;12.052;2023-04-09T08:37:03;96865.13;;;9.94;100.00
56944;BME280;42848;42.524;12.052;2023-04-09T08:39:28;96866.09;;;9.90;100.00
56944;BME280;42848;42.524;12.052;2023-04-09T08:41:59;96859.63;;;10.08;100.00
56944;BME280;42848;42.524;12.052;2023-04-09T08:44:28;96867.16;;;10.20;100.00
56944;BME280;42848;42.524;12.052;2023-04-09T08:46:54;96859.81;;;10.20;100.00
56944;BME280;42848;42.524;12.052;2023-04-09T08:49:20;96877.44;;;10.32;100.00
56944;BME280;42848;42.524;12.052;2023-04-09T08:51:47;96865.78;;;10.31;100.00
56944;BME280;42848;42.524;12.052;2023-04-09T08:54:15;96858.81;;;10.47;100.00
56944;BME280;42848;42.524;12.052;2023-04-09T08:56:41;96856.47;;;10.63;100.00
56944;BME280;42848;42.524;12.052;2023-04-09T08:59:08;96863.81;;;10.63;100.00
56944;BME280;42848;42.524;12.052;2023-04-09T09:01:33;96858.38;;;10.63;100.00
56944;BME280;42848;42.524;12.052;2023-04-09T09:04:04;96861.44;;;10.70;100.00
56944;BME280;42848;42.524;12.052;2023-04-09T09:06:36;96862.72;;;10.72;100.00
56944;BME280;42848;42.524;12.052;2023-04-09T09:09:07;96862.25;;;10.79;100.00
56944;BME280;42848;42.524;12.052;2023-04-09T09:11:39;96867.66;;;10.70;100.00
56944;BME280;42848;42.524;12.052;2023-04-09T09:14:07;96859.19;;;10.72;100.00
56944;BME280;42848;42.524;12.052;2023-04-09T09:16:34;96870.41;;;10.79;100.00
56944;BME280;42848;42.524;12.052;2023-04-09T09:19:01;96866.53;;;10.63;100.00
56944;BME280;42848;42.524;12.052;2023-04-09T09:21:28;96871.69;;;10.90;100.00
56944;BME280;42848;42.524;12.052;2023-04-09T09:23:54;96868.63;;;10.92;100.00
56944;BME280;42848;42.524;12.052;2023-04-09T09:26:24;96873.59;;;10.98;100.00
56944;BME280;42848;42.524;12.052;2023-04-09T09:28:50;96864.03;;;11.09;100.00
56944;BME280;42848;42.524;12.052;2023-04-09T09:31:18;96868.34;;;11.19;100.00
56944;BME280;42848;42.524;12.052;2023-04-09T09:33:45;96867.53;;;11.01;100.00
56944;BME280;42848;42.524;12.052;2023-04-09T09:36:11;96871.19;;;10.97;100.00
56944;BME280;42848;42.524;12.052;2023-04-09T09:41:16;96882.22;;;11.00;91.55
56944;BME280;42848;42.524;12.052;2023-04-09T09:43:43;96875.19;;;10.99;92.47
56944;BME280;42848;42.524;12.052;2023-04-09T09:46:10;96883.66;;;11.24;96.43
56944;BME280;42848;42.524;12.052;2023-04-09T09:48:38;96883.50;;;11.11;99.38
56944;BME280;42848;42.524;12.052;2023-04-09T09:51:11;96887.69;;;11.09;99.91
56944;BME280;42848;42.524;12.052;2023-04-09T09:53:39;96888.28;;;11.15;97.96
56944;BME280;42848;42.524;12.052;2023-04-09T09:56:06;96880.00;;;11.20;97.41
56944;BME280;42848;42.524;12.052;2023-04-09T09:58:40;96882.06;;;11.23;97.64
56944;BME280;42848;42.524;12.052;2023-04-09T10:01:09;96881.13;;;11.19;95.65
56944;BME280;42848;42.524;12.052;2023-04-09T10:03:38;96887.81;;;11.30;94.51
56944;BME280;42848;42.524;12.052;2023-04-09T10:06:05;96877.44;;;11.32;93.15
56944;BME280;42848;42.524;12.052;2023-04-09T10:08:32;96884.44;;;11.50;97.76
56944;BME280;42848;42.524;12.052;2023-04-09T10:11:02;96883.03;;;11.44;97.69
56944;BME280;42848;42.524;12.052;2023-04-09T10:13:40;96877.25;;;11.63;98.54
56944;BME280;42848;42.524;12.052;2023-04-09T10:16:08;96872.28;;;11.65;98.96
56944;BME280;42848;42.524;12.052;2023-04-09T10:18:33;96880.00;;;11.54;99.36
56944;BME280;42848;42.524;12.052;2023-04-09T10:21:11;96872.09;;;11.79;98.71
56944;BME280;42848;42.524;12.052;2023-04-09T10:23:40;96887.88;;;12.11;100.00
56944;BME280;42848;42.524;12.052;2023-04-09T10:26:06;96885.69;;;11.96;95.82
56944;BME280;42848;42.524;12.052;2023-04-09T10:28:32;96878.19;;;11.84;92.82
56944;BME280;42848;42.524;12.052;2023-04-09T10:30:58;96871.03;;;11.62;93.87
56944;BME280;42848;42.524;12.052;2023-04-09T10:33:26;96877.34;;;12.01;98.24
56944;BME280;42848;42.524;12.052;2023-04-09T10:35:54;96871.25;;;12.04;96.81
56944;BME280;42848;42.524;12.052;2023-04-09T10:38:40;96870.09;;;12.14;96.52
56944;BME280;42848;42.524;12.052;2023-04-09T10:41:15;96862.56;;;12.19;96.55
56944;BME280;42848;42.524;12.052;2023-04-09T10:43:46;96856.44;;;12.22;98.83
56944;BME280;42848;42.524;12.052;2023-04-09T10:46:35;96877.88;;;11.86;92.18
56944;BME280;42848;42.524;12.052;2023-04-09T10:49:17;96873.56;;;11.67;91.40
56944;BME280;42848;42.524;12.052;2023-04-09T10:59:38;96881.78;;;12.14;92.86
56944;BME280;42848;42.524;12.052;2023-04-09T11:05:20;96878.63;;;11.95;86.08
56944;BME280;42848;42.524;12.052;2023-04-09T11:08:07;96873.41;;;12.28;87.63
56944;BME280;42848;42.524;12.052;2023-04-09T11:10:34;96876.19;;;12.49;89.45
56944;BME280;42848;42.524;12.052;2023-04-09T11:13:01;96882.88;;;12.22;81.18
56944;BME280;42848;42.524;12.052;2023-04-09T11:15:27;96875.63;;;12.35;79.56
56944;BME280;42848;42.524;12.052;2023-04-09T11:17:53;96869.44;;;12.26;80.73
56944;BME280;42848;42.524;12.052;2023-04-09T11:20:21;96875.81;;;12.59;85.37
56944;BME280;42848;42.524;12.052;2023-04-09T11:22:52;96877.03;;;12.70;86.69
56944;BME280;42848;42.524;12.052;2023-04-09T11:25:24;96884.13;;;12.24;80.87
56944;BME280;42848;42.524;12.052;2023-04-09T11:27:51;96874.66;;;12.31;81.86
56944;BME280;42848;42.524;12.052;2023-04-09T11:30:17;96872.38;;;12.41;77.83
56944;BME280;42848;42.524;12.052;2023-04-09T11:32:43;96880.69;;;12.45;76.55
56944;BME280;42848;42.524;12.052;2023-04-09T11:35:14;96873.50;;;12.70;79.55
56944;BME280;42848;42.524;12.052;2023-04-09T11:37:41;96874.63;;;12.69;75.70
56944;BME280;42848;42.524;12.052;2023-04-09T11:40:17;96864.53;;;12.69;75.84
56944;BME280;42848;42.524;12.052;2023-04-09T11:42:44;96866.91;;;12.71;77.21
56944;BME280;42848;42.524;12.052;2023-04-09T11:45:10;96865.28;;;12.78;75.77
56944;BME280;42848;42.524;12.052;2023-04-09T11:47:38;96858.66;;;12.88;75.75
56944;BME280;42848;42.524;12.052;2023-04-09T11:50:09;96867.75;;;12.71;79.17
56944;BME280;42848;42.524;12.052;2023-04-09T11:52:35;96865.41;;;12.23;75.95
56944;BME280;42848;42.524;12.052;2023-04-09T11:55:02;96869.75;;;12.15;76.60
56944;BME280;42848;42.524;12.052;2023-04-09T11:57:45;96862.66;;;12.61;79.20
56944;BME280;42848;42.524;12.052;2023-04-09T12:00:12;96854.47;;;12.61;75.36
56944;BME280;42848;42.524;12.052;2023-04-09T12:02:43;96863.91;;;12.93;80.27
56944;BME280;42848;42.524;12.052;2023-04-09T12:05:12;96853.47;;;12.95;82.97
56944;BME280;42848;42.524;12.052;2023-04-09T12:07:44;96853.94;;;13.18;84.89
56944;BME280;42848;42.524;12.052;2023-04-09T12:10:10;96873.03;;;13.18;85.89
56944;BME280;42848;42.524;12.052;2023-04-09T12:12:44;96864.75;;;13.06;87.58
56944;BME280;42848;42.524;12.052;2023-04-09T12:15:23;96873.19;;;12.71;79.86
56944;BME280;42848;42.524;12.052;2023-04-09T12:17:56;96867.16;;;12.87;75.26
56944;BME280;42848;42.524;12.052;2023-04-09T12:20:33;96850.34;;;13.05;75.02
56944;BME280;42848;42.524;12.052;2023-04-09T12:23:01;96857.28;;;13.24;78.14
56944;BME280;42848;42.524;12.052;2023-04-09T12:25:29;96854.22;;;13.25;80.15
56944;BME280;42848;42.524;12.052;2023-04-09T12:27:55;96869.59;;;12.79;82.65
56944;BME280;42848;42.524;12.052;2023-04-09T12:30:22;96860.84;;;12.74;83.22
56944;BME280;42848;42.524;12.052;2023-04-09T12:32:49;96862.56;;;12.78;79.71
56944;BME280;42848;42.524;12.052;2023-04-09T12:35:15;96856.34;;;12.99;82.53
56944;BME280;42848;42.524;12.052;2023-04-09T12:37:41;96849.81;;;13.12;76.74
56944;BME280;42848;42.524;12.052;2023-04-09T12:40:07;96844.38;;;13.12;73.40
56944;BME280;42848;42.524;12.052;2023-04-09T12:42:33;96846.19;;;13.08;69.28
56944;BME280;42848;42.524;12.052;2023-04-09T12:44:59;96863.91;;;13.14;68.13
56944;BME280;42848;42.524;12.052;2023-04-09T12:47:25;96857.38;;;13.06;67.29
56944;BME280;42848;42.524;12.052;2023-04-09T12:49:53;96858.84;;;13.04;68.88
56944;BME280;42848;42.524;12.052;2023-04-09T12:52:18;96843.31;;;13.25;72.02
56944;BME280;42848;42.524;12.052;2023-04-09T12:54:44;96840.53;;;13.67;76.35
56944;BME280;42848;42.524;12.052;2023-04-09T12:57:10;96847.97;;;13.25;72.61
56944;BME280;42848;42.524;12.052;2023-04-09T12:59:36;96844.66;;;13.19;74.73
56944;BME280;42848;42.524;12.052;2023-04-09T13:02:02;96850.91;;;12.99;73.86
56944;BME280;42848;42.524;12.052;2023-04-09T13:04:27;96834.00;;;13.47;75.88
56944;BME280;42848;42.524;12.052;2023-04-09T13:06:53;96828.81;;;13.66;75.33
56944;BME280;42848;42.524;12.052;2023-04-09T13:09:19;96829.19;;;13.89;74.21
56944;BME280;42848;42.524;12.052;2023-04-09T13:11:44;96832.41;;;13.91;79.99
56944;BME280;42848;42.524;12.052;2023-04-09T13:14:10;96829.78;;;14.07;74.02
56944;BME280;42848;42.524;12.052;2023-04-09T13:16:40;96833.56;;;13.90;71.36
56944;BME280;42848;42.524;12.052;2023-04-09T13:19:08;96846.41;;;13.90;61.42